Time;durP1;ratioP1;P1;durP2;ratioP2;P2;SDS_P1;SDS_P2;PMS_P1;PMS_P2;Temp;Humidity;BMP_temperature;BMP_pressure;BME280_temperature;BME280_humidity;BME280_pressure;Samples;Min_cycle;Max_cycle;Signal;HPM_P1;HPM_P2
2022/08/05 00:01:40;;;;;;;3.40;3.20;;;26.60;45.90;;;;;;5165543;28;20188;-48
2022/08/05 00:04:10;;;;;;;5.80;3.40;;;26.50;45.80;;;;;;5159469;28;20265;-47
2022/08/05 00:06:41;;;;;;;3.47;3.30;;;26.50;45.80;;;;;;5239452;28;20283;-47
2022/08/05 00:09:12;;;;;;;3.53;3.23;;;26.50;45.90;;;;;;5163948;28;20628;-48
2022/08/05 00:11:42;;;;;;;3.33;3.10;;;26.40;46.00;;;;;;5223979;28;20675;-48
2022/08/05 00:14:13;;;;;;;3.10;3.00;;;26.40;46.00;;;;;;5153648;28;20189;-46
2022/08/05 00:16:46;;;;;;;2.40;2.33;;;26.40;46.00;;;;;;5157509;28;20181;-47
2022/08/05 00:19:17;;;;;;;4.63;2.80;;;26.30;46.20;;;;;;5212969;28;20216;-48
2022/08/05 00:21:48;;;;;;;3.30;3.00;;;26.20;46.60;;;;;;5225022;28;20495;-48
2022/08/05 00:24:19;;;;;;;2.90;2.80;;;26.20;46.60;;;;;;5154698;28;20186;-48
2022/08/05 00:26:49;;;;;;;4.70;3.53;;;26.10;46.70;;;;;;5158846;28;20505;-46
2022/08/05 00:29:20;;;;;;;9.30;3.70;;;26.10;46.70;;;;;;5231972;28;20239;-48
2022/08/05 00:31:52;;;;;;;3.73;3.40;;;26.10;46.80;;;;;;5223284;28;20192;-46
2022/08/05 00:34:23;;;;;;;3.77;3.43;;;26.10;47.00;;;;;;5167724;28;20990;-47
2022/08/05 00:36:53;;;;;;;5.50;3.70;;;26.10;47.10;;;;;;5183761;28;20445;-48
2022/08/05 00:39:24;;;;;;;3.10;3.00;;;26.00;47.30;;;;;;5158948;28;20213;-47
2022/08/05 00:41:55;;;;;;;3.77;3.47;;;25.90;47.30;;;;;;5227093;28;20188;-48
2022/08/05 00:44:25;;;;;;;9.00;3.47;;;25.90;47.60;;;;;;5242026;28;20211;-47
2022/08/05 00:46:56;;;;;;;3.63;3.43;;;25.90;47.70;;;;;;5157699;28;20188;-47
2022/08/05 00:49:27;;;;;;;4.40;4.00;;;25.80;47.80;;;;;;5226897;28;20677;-47
2022/08/05 00:51:57;;;;;;;3.80;3.60;;;25.80;48.60;;;;;;5156179;28;20271;-47
2022/08/05 00:54:28;;;;;;;3.73;3.53;;;25.80;48.00;;;;;;5207955;28;20189;-47
2022/08/05 00:56:58;;;;;;;3.20;3.10;;;25.70;48.10;;;;;;5238766;28;20185;-47
2022/08/05 00:59:29;;;;;;;2.83;2.73;;;25.70;48.40;;;;;;5154611;28;20213;-45
2022/08/05 01:01:59;;;;;;;5.27;4.20;;;25.60;48.70;;;;;;5159205;28;20213;-45
2022/08/05 01:04:30;;;;;;;4.03;3.70;;;25.50;49.00;;;;;;5219649;28;20192;-46
2022/08/05 01:07:01;;;;;;;4.33;3.93;;;25.50;49.20;;;;;;5253107;28;20180;-45
2022/08/05 01:09:31;;;;;;;10.53;4.00;;;25.50;49.10;;;;;;5160691;28;20292;-46
2022/08/05 01:12:07;;;;;;;3.10;3.00;;;25.50;49.40;;;;;;5158680;28;20288;-46
2022/08/05 01:14:49;;;;;;;9.90;4.90;;;25.40;49.20;;;;;;5246173;28;20181;-44
2022/08/05 01:17:30;;;;;;;4.23;3.93;;;25.40;49.40;;;;;;5162328;28;20800;-45
2022/08/05 01:20:29;;;;;;;3.90;3.70;;;25.30;49.60;;;;;;5224164;28;20440;-44
2022/08/05 01:23:22;;;;;;;3.87;3.57;;;25.30;49.70;;;;;;5227003;28;20463;-45
2022/08/05 01:26:12;;;;;;;4.57;4.27;;;25.30;49.40;;;;;;5159027;28;20465;-46
2022/08/05 01:28:50;;;;;;;5.40;4.30;;;25.40;49.90;;;;;;5157467;28;20471;-45
2022/08/05 01:31:50;;;;;;;5.87;4.67;;;25.40;50.30;;;;;;5165676;28;21078;-45
2022/08/05 01:34:44;;;;;;;5.20;4.80;;;25.30;50.80;;;;;;5158167;28;20447;-46
2022/08/05 01:37:24;;;;;;;5.07;4.67;;;25.20;51.60;;;;;;5163919;28;20893;-49
2022/08/05 01:39:56;;;;;;;7.13;4.63;;;25.00;52.20;;;;;;5166088;28;21002;-45
2022/08/05 01:42:30;;;;;;;13.73;4.70;;;24.90;52.70;;;;;;5170736;28;20537;-46
2022/08/05 01:45:02;;;;;;;6.53;4.43;;;24.70;53.20;;;;;;5158510;28;20441;-46
2022/08/05 01:47:35;;;;;;;4.43;3.70;;;24.70;53.50;;;;;;5220149;28;20504;-46
2022/08/05 01:50:16;;;;;;;4.70;4.43;;;24.50;54.00;;;;;;5161582;28;20494;-47
2022/08/05 01:52:49;;;;;;;6.80;4.43;;;24.40;54.90;;;;;;5219460;28;20913;-47
2022/08/05 01:55:21;;;;;;;6.43;3.83;;;24.30;55.70;;;;;;5165183;28;20444;-49
2022/08/05 01:57:54;;;;;;;6.30;4.30;;;24.20;55.90;;;;;;5166282;28;20836;-45
2022/08/05 02:00:26;;;;;;;12.83;4.07;;;24.10;56.40;;;;;;5200689;28;20448;-46
2022/08/05 02:03:30;;;;;;;6.77;4.00;;;24.00;56.70;;;;;;5232037;28;20440;-45
2022/08/05 02:06:04;;;;;;;4.50;4.20;;;23.90;57.30;;;;;;5168772;28;20473;-47
2022/08/05 02:08:35;;;;;;;4.83;4.17;;;23.80;57.40;;;;;;5160666;28;20808;-45
2022/08/05 02:11:12;;;;;;;7.53;4.50;;;23.80;57.80;;;;;;5226072;28;20436;-47
2022/08/05 02:14:09;;;;;;;4.23;3.90;;;23.70;58.40;;;;;;5162684;28;20619;-46
2022/08/05 02:16:50;;;;;;;5.17;4.70;;;23.70;58.70;;;;;;5163710;28;20459;-45
2022/08/05 02:19:27;;;;;;;4.60;4.20;;;23.60;58.90;;;;;;5222632;28;20519;-46
2022/08/05 02:22:12;;;;;;;5.37;3.57;;;23.50;59.40;;;;;;5163281;28;20498;-45
2022/08/05 02:24:50;;;;;;;7.07;3.90;;;23.30;59.70;;;;;;5164746;28;20442;-46
2022/08/05 02:27:22;;;;;;;13.43;4.03;;;23.30;60.00;;;;;;5156554;28;20440;-47
2022/08/05 02:29:53;;;;;;;3.83;3.63;;;23.30;60.40;;;;;;5160497;28;20459;-45
2022/08/05 02:32:26;;;;;;;4.47;4.13;;;23.30;60.70;;;;;;5233079;28;20915;-45
2022/08/05 02:35:05;;;;;;;4.13;3.80;;;23.20;61.00;;;;;;5161174;28;20447;-45
2022/08/05 02:37:37;;;;;;;4.13;3.87;;;23.20;61.20;;;;;;5154602;28;20547;-45
2022/08/05 02:40:09;;;;;;;4.47;3.70;;;23.20;61.60;;;;;;5219984;28;20441;-46
2022/08/05 02:42:41;;;;;;;8.50;4.50;;;23.20;61.60;;;;;;5224003;28;20527;-45
2022/08/05 02:45:13;;;;;;;6.23;3.80;;;23.20;61.80;;;;;;5224737;28;20437;-45
2022/08/05 02:47:45;;;;;;;3.50;3.33;;;23.20;62.20;;;;;;5154595;28;20819;-46
2022/08/05 02:50:16;;;;;;;5.87;3.80;;;23.20;62.50;;;;;;5157978;28;20549;-46
2022/08/05 02:52:47;;;;;;;5.80;3.30;;;23.10;62.90;;;;;;5216129;28;20437;-45
2022/08/05 02:55:19;;;;;;;5.20;4.10;;;23.10;63.00;;;;;;5156897;28;20470;-45
2022/08/05 02:57:50;;;;;;;6.70;3.50;;;23.10;63.50;;;;;;5220371;28;20582;-45
2022/08/05 03:00:20;;;;;;;11.30;3.57;;;23.10;64.10;;;;;;5162735;28;20548;-45
2022/08/05 03:02:52;;;;;;;3.40;3.20;;;23.10;65.30;;;;;;5156234;28;20642;-45
2022/08/05 03:05:23;;;;;;;3.40;3.30;;;23.10;65.10;;;;;;5224011;28;20185;-46
2022/08/05 03:07:54;;;;;;;3.90;3.70;;;23.00;65.60;;;;;;5226474;28;21560;-45
2022/08/05 03:10:25;;;;;;;4.30;3.67;;;23.00;66.20;;;;;;5160777;28;20449;-46
2022/08/05 03:12:56;;;;;;;7.27;3.20;;;23.00;67.10;;;;;;5225472;28;20452;-47
2022/08/05 03:15:26;;;;;;;4.17;3.77;;;23.00;67.90;;;;;;5153727;28;20196;-46
2022/08/05 03:17:57;;;;;;;3.90;3.60;;;23.00;68.80;;;;;;5226964;28;20274;-45
2022/08/05 03:20:27;;;;;;;3.70;3.50;;;23.00;69.50;;;;;;5161296;28;20188;-45
2022/08/05 03:22:59;;;;;;;14.83;3.50;;;23.00;70.60;;;;;;5152939;28;20185;-46
2022/08/05 03:25:29;;;;;;;7.03;3.13;;;23.00;71.40;;;;;;5159500;28;20221;-49
2022/08/05 03:28:05;;;;;;;6.93;4.87;;;22.90;72.60;;;;;;5245224;28;20552;-46
2022/08/05 03:30:37;;;;;;;5.97;3.80;;;22.90;73.70;;;;;;5228249;28;20190;-46
2022/08/05 03:33:08;;;;;;;3.40;3.10;;;22.90;74.80;;;;;;5213732;28;20441;-46
2022/08/05 03:35:39;;;;;;;5.77;4.00;;;22.90;75.90;;;;;;5249575;28;20464;-46
2022/08/05 03:38:13;;;;;;;6.67;3.77;;;22.80;76.90;;;;;;5154144;28;20558;-47
2022/08/05 03:40:45;;;;;;;3.20;3.10;;;22.80;78.50;;;;;;5158124;28;20213;-47
2022/08/05 03:43:16;;;;;;;6.20;3.40;;;22.80;79.60;;;;;;5217417;28;20552;-46
2022/08/05 03:45:47;;;;;;;3.63;3.10;;;22.80;81.30;;;;;;5225036;28;20986;-45
2022/08/05 03:48:18;;;;;;;12.37;3.33;;;22.80;81.50;;;;;;5225753;28;20499;-49
2022/08/05 03:51:02;;;;;;;5.70;3.63;;;22.80;82.50;;;;;;5151433;28;21076;-49
2022/08/05 03:54:02;;;;;;;4.00;3.70;;;22.90;83.50;;;;;;5225713;28;20464;-46
2022/08/05 03:56:37;;;;;;;9.33;3.53;;;22.90;84.40;;;;;;5177278;28;20523;-47
2022/08/05 03:59:14;;;;;;;3.20;3.00;;;22.80;85.80;;;;;;5157074;28;20555;-47
2022/08/05 04:01:48;;;;;;;3.67;3.50;;;22.80;87.40;;;;;;5153996;28;20459;-47
2022/08/05 04:04:20;;;;;;;3.90;3.47;;;22.80;88.40;;;;;;5218522;28;20812;-46
2022/08/05 04:06:51;;;;;;;3.20;3.00;;;22.80;89.20;;;;;;5237899;28;20818;-45
2022/08/05 04:09:23;;;;;;;3.70;3.37;;;22.80;89.90;;;;;;5157806;28;20455;-45
2022/08/05 04:11:54;;;;;;;4.03;3.83;;;22.90;90.40;;;;;;5220380;28;20445;-46
2022/08/05 04:14:26;;;;;;;3.67;3.57;;;22.90;90.70;;;;;;5227778;28;20444;-45
2022/08/05 04:16:58;;;;;;;5.33;3.43;;;22.90;91.00;;;;;;5168411;28;20783;-45
2022/08/05 04:19:29;;;;;;;3.83;3.53;;;23.00;91.20;;;;;;5160366;28;20475;-46
2022/08/05 04:22:00;;;;;;;4.60;3.80;;;23.10;91.30;;;;;;5223376;28;20441;-47
2022/08/05 04:24:31;;;;;;;3.50;3.20;;;23.20;91.50;;;;;;5157423;28;20930;-46
2022/08/05 04:27:01;;;;;;;3.87;3.60;;;23.30;91.40;;;;;;5230890;28;20534;-45
2022/08/05 04:29:32;;;;;;;7.30;3.03;;;23.40;91.30;;;;;;5160899;28;20244;-45
2022/08/05 04:32:03;;;;;;;3.93;3.63;;;23.60;91.10;;;;;;5225850;28;20197;-46
2022/08/05 04:34:35;;;;;;;3.80;3.50;;;23.60;90.80;;;;;;5165216;28;20263;-47
2022/08/05 04:37:06;;;;;;;6.90;3.50;;;23.70;90.80;;;;;;5235915;28;20448;-48
2022/08/05 04:39:37;;;;;;;4.73;3.97;;;23.80;90.50;;;;;;5212557;28;20303;-46
2022/08/05 04:42:08;;;;;;;3.90;3.73;;;23.80;90.20;;;;;;5246461;28;20185;-46
2022/08/05 04:44:38;;;;;;;4.13;3.70;;;23.80;90.30;;;;;;5226533;28;20181;-47
2022/08/05 04:47:09;;;;;;;3.73;3.33;;;23.90;90.20;;;;;;5233418;28;20524;-46
2022/08/05 04:49:39;;;;;;;3.30;3.10;;;24.00;90.10;;;;;;5151877;28;20205;-46
2022/08/05 04:52:10;;;;;;;8.43;3.23;;;24.20;89.80;;;;;;5147519;28;20189;-47
2022/08/05 04:54:41;;;;;;;5.90;3.77;;;24.30;88.60;;;;;;5226316;28;20185;-46
2022/08/05 04:57:11;;;;;;;6.60;3.53;;;24.60;86.40;;;;;;5148781;28;20281;-46
2022/08/05 04:59:42;;;;;;;5.40;3.70;;;25.00;84.60;;;;;;5217551;28;20295;-47
2022/08/05 05:02:12;;;;;;;3.73;3.53;;;25.40;80.30;;;;;;5150958;28;20664;-46
2022/08/05 05:04:43;;;;;;;7.73;3.40;;;25.50;79.50;;;;;;5160451;28;20612;-46
2022/08/05 05:07:15;;;;;;;3.60;3.40;;;25.60;78.40;;;;;;5221319;28;20185;-47
2022/08/05 05:09:45;;;;;;;3.10;3.00;;;25.80;77.30;;;;;;5158236;28;20572;-47
2022/08/05 05:12:16;;;;;;;3.77;3.60;;;26.50;74.80;;;;;;5221439;28;20441;-47
2022/08/05 05:14:46;;;;;;;3.80;3.40;;;26.70;72.60;;;;;;5223337;28;20185;-48
2022/08/05 05:17:17;;;;;;;3.70;2.77;;;27.10;70.80;;;;;;5148471;28;20215;-46
2022/08/05 05:19:48;;;;;;;7.93;3.33;;;27.40;68.30;;;;;;5215763;28;20210;-47
2022/08/05 05:22:18;;;;;;;5.60;2.97;;;27.00;68.80;;;;;;5154826;28;20191;-46
2022/08/05 05:24:49;;;;;;;3.70;3.40;;;26.30;70.80;;;;;;5155736;28;20189;-47
2022/08/05 05:27:20;;;;;;;3.80;3.07;;;25.90;73.20;;;;;;5216932;28;20189;-46
2022/08/05 05:29:50;;;;;;;17.73;3.50;;;25.60;74.70;;;;;;5225940;28;20241;-46
2022/08/05 05:32:21;;;;;;;5.40;3.13;;;25.30;76.60;;;;;;5225473;28;20235;-46
2022/08/05 05:34:51;;;;;;;5.83;3.50;;;25.30;77.70;;;;;;5227561;28;20258;-47
2022/08/05 05:37:22;;;;;;;3.83;3.53;;;25.30;78.40;;;;;;5224976;28;20185;-45
2022/08/05 05:39:52;;;;;;;6.43;3.40;;;25.30;78.40;;;;;;5154157;28;20225;-46
2022/08/05 05:42:23;;;;;;;3.73;3.40;;;25.30;79.10;;;;;;5155544;28;20266;-45
2022/08/05 05:44:54;;;;;;;3.70;3.40;;;25.40;79.30;;;;;;5225593;28;20248;-48
2022/08/05 05:47:24;;;;;;;5.53;3.30;;;25.40;79.40;;;;;;5149562;28;20186;-47
2022/08/05 05:49:55;;;;;;;3.50;3.20;;;25.50;79.30;;;;;;5157161;28;20217;-46
2022/08/05 05:52:25;;;;;;;3.83;3.40;;;25.60;79.10;;;;;;5157902;28;20294;-47
2022/08/05 05:55:00;;;;;;;3.77;3.37;;;25.60;79.10;;;;;;5150348;28;20196;-46
2022/08/05 05:57:30;;;;;;;5.70;3.40;;;25.60;79.20;;;;;;5158453;28;20637;-47
2022/08/05 06:00:03;;;;;;;4.73;3.43;;;25.50;79.30;;;;;;5148625;28;20452;-46
2022/08/05 06:02:34;;;;;;;4.43;3.90;;;25.50;79.60;;;;;;5149772;28;20255;-46
2022/08/05 06:05:07;;;;;;;11.07;4.17;;;25.50;79.80;;;;;;5226503;28;20432;-46
2022/08/05 06:07:38;;;;;;;4.30;4.00;;;25.60;79.80;;;;;;5154859;28;20186;-46
2022/08/05 06:10:09;;;;;;;3.87;3.57;;;25.50;80.10;;;;;;5217817;28;20444;-46
2022/08/05 06:12:40;;;;;;;4.67;4.27;;;25.50;80.30;;;;;;5160298;28;20181;-50
2022/08/05 06:15:10;;;;;;;3.60;3.33;;;25.50;80.30;;;;;;5155624;28;20182;-45
2022/08/05 06:17:41;;;;;;;24.83;3.60;;;25.40;80.70;;;;;;5159523;28;20204;-46
2022/08/05 06:20:12;;;;;;;6.57;3.80;;;25.30;80.90;;;;;;5229423;28;20185;-44
2022/08/05 06:22:42;;;;;;;9.80;3.50;;;25.30;81.90;;;;;;5152895;28;20189;-46
2022/08/05 06:25:13;;;;;;;4.33;3.97;;;25.40;82.30;;;;;;5214465;28;20185;-46
2022/08/05 06:27:43;;;;;;;3.60;3.30;;;25.50;82.20;;;;;;5157266;28;20193;-46
2022/08/05 06:30:14;;;;;;;3.90;3.60;;;25.80;81.60;;;;;;5231208;28;20212;-45
2022/08/05 06:32:45;;;;;;;9.80;3.23;;;26.50;79.80;;;;;;5162527;28;20219;-46
2022/08/05 06:35:16;;;;;;;5.93;3.20;;;27.80;73.70;;;;;;5230489;28;20432;-46
2022/08/05 06:37:46;;;;;;;4.63;2.73;;;28.10;70.40;;;;;;5170481;28;20191;-46
2022/08/05 06:40:17;;;;;;;5.17;2.90;;;28.30;68.10;;;;;;5164401;28;20533;-47
2022/08/05 06:42:50;;;;;;;2.50;2.30;;;28.50;68.10;;;;;;5147667;28;20659;-46
2022/08/05 06:45:22;;;;;;;3.47;3.10;;;29.20;65.90;;;;;;5156082;28;20188;-47
2022/08/05 06:47:52;;;;;;;5.33;3.13;;;30.10;61.40;;;;;;5229197;28;20452;-46
2022/08/05 06:50:25;;;;;;;2.93;2.73;;;31.80;57.10;;;;;;5153706;28;20442;-47
2022/08/05 06:52:55;;;;;;;2.90;2.80;;;33.00;52.80;;;;;;5233659;28;20196;-46
2022/08/05 06:55:26;;;;;;;2.00;2.00;;;34.30;49.20;;;;;;5149876;28;20919;-47
2022/08/05 06:57:56;;;;;;;3.37;3.13;;;34.30;47.80;;;;;;5148393;28;20267;-49
2022/08/05 07:00:27;;;;;;;2.57;2.37;;;33.80;47.80;;;;;;5150060;28;20235;-47
2022/08/05 07:02:58;;;;;;;1.60;1.60;;;32.80;49.20;;;;;;5151978;28;20209;-46
2022/08/05 07:05:29;;;;;;;1.97;1.87;;;31.20;52.00;;;;;;5220365;28;20606;-48
2022/08/05 07:07:59;;;;;;;2.03;1.93;;;30.10;54.60;;;;;;5224509;28;20205;-47
2022/08/05 07:10:30;;;;;;;2.73;2.10;;;29.70;55.80;;;;;;5213502;28;20188;-47
2022/08/05 07:18:39;;;;;;;7.93;2.30;;;31.50;51.90;;;;;;5151606;28;20474;-47
2022/08/05 07:21:09;;;;;;;3.03;2.03;;;31.30;52.40;;;;;;5171974;28;20440;-51
2022/08/05 07:23:40;;;;;;;2.00;1.90;;;30.90;53.10;;;;;;5154648;28;20189;-46
2022/08/05 07:26:10;;;;;;;12.27;2.70;;;30.10;54.70;;;;;;5224627;28;20187;-45
2022/08/05 07:28:41;;;;;;;5.30;1.90;;;30.00;55.90;;;;;;5148528;28;20291;-47
2022/08/05 07:31:11;;;;;;;21.23;2.83;;;30.10;55.50;;;;;;5155110;28;20653;-47
2022/08/05 07:33:42;;;;;;;15.83;3.23;;;30.40;55.50;;;;;;5152550;28;20180;-49
2022/08/05 07:36:13;;;;;;;2.73;2.33;;;31.30;54.00;;;;;;5223823;28;20202;-47
2022/08/05 07:38:44;;;;;;;11.00;2.80;;;31.60;52.40;;;;;;5226733;28;20471;-47
2022/08/05 07:41:18;;;;;;;5.80;2.73;;;30.70;53.50;;;;;;5225635;28;20192;-44
2022/08/05 07:43:49;;;;;;;3.90;2.50;;;31.30;53.70;;;;;;5225402;28;20177;-45
2022/08/05 07:46:19;;;;;;;10.03;2.27;;;30.80;53.80;;;;;;5226709;28;20446;-47
2022/08/05 07:48:50;;;;;;;4.83;2.03;;;30.20;55.40;;;;;;5149480;28;20489;-49
2022/08/05 07:51:21;;;;;;;1.87;1.87;;;29.40;55.90;;;;;;5148153;28;20330;-47
2022/08/05 07:53:51;;;;;;;4.87;2.20;;;28.50;58.30;;;;;;5156649;28;20193;-48
2022/08/05 07:56:22;;;;;;;2.40;2.20;;;27.80;59.70;;;;;;5157393;28;20211;-50
2022/08/05 07:58:52;;;;;;;3.03;2.33;;;27.10;62.10;;;;;;5224509;28;20692;-47
2022/08/05 08:01:24;;;;;;;2.50;2.40;;;26.70;63.90;;;;;;5224781;28;20251;-47
2022/08/05 08:03:55;;;;;;;7.83;3.37;;;26.40;66.10;;;;;;5155851;28;20645;-47
2022/08/05 08:06:26;;;;;;;2.83;2.10;;;26.10;67.50;;;;;;5150599;28;20444;-48
2022/08/05 08:08:56;;;;;;;4.93;2.53;;;25.90;68.90;;;;;;5215744;28;20390;-47
2022/08/05 08:11:28;;;;;;;2.70;2.50;;;25.60;70.00;;;;;;5216709;28;20188;-50
2022/08/05 08:13:59;;;;;;;3.73;2.53;;;25.50;71.50;;;;;;5229510;28;20200;-46
2022/08/05 08:16:29;;;;;;;6.80;2.50;;;25.40;72.80;;;;;;5154957;28;20440;-46
2022/08/05 08:19:00;;;;;;;3.80;2.70;;;25.30;76.70;;;;;;5157797;28;20269;-49
2022/08/05 08:21:30;;;;;;;3.23;2.40;;;25.10;83.40;;;;;;5153047;28;20948;-46
2022/08/05 08:24:01;;;;;;;4.43;2.33;;;25.00;85.20;;;;;;5224548;28;20658;-47
2022/08/05 08:26:32;;;;;;;2.70;2.60;;;25.10;88.80;;;;;;5154890;28;20179;-47
2022/08/05 08:29:03;;;;;;;6.07;1.50;;;25.10;85.30;;;;;;5202697;28;20206;-46
2022/08/05 08:31:33;;;;;;;2.40;1.80;;;25.30;83.60;;;;;;5149394;28;20332;-45
2022/08/05 08:34:04;;;;;;;6.50;2.03;;;26.00;78.70;;;;;;5153918;28;20193;-50
2022/08/05 08:36:34;;;;;;;3.03;2.57;;;26.60;73.90;;;;;;5150790;28;20913;-46
2022/08/05 08:39:06;;;;;;;2.20;1.90;;;26.70;71.50;;;;;;5227287;28;20216;-45
2022/08/05 08:41:39;;;;;;;3.67;3.00;;;26.50;70.80;;;;;;5216160;28;20178;-45
2022/08/05 08:44:14;;;;;;;3.30;2.00;;;26.30;71.80;;;;;;5215468;28;20520;-45
2022/08/05 08:46:47;;;;;;;2.60;1.90;;;26.10;72.80;;;;;;5147660;28;20831;-45
2022/08/05 08:49:20;;;;;;;1.53;1.53;;;25.80;73.30;;;;;;5225211;28;20468;-47
2022/08/05 08:52:11;;;;;;;9.97;2.07;;;25.70;74.70;;;;;;5154731;28;20515;-45
2022/08/05 08:54:43;;;;;;;7.40;1.83;;;25.60;75.40;;;;;;5153669;28;20450;-46
2022/08/05 08:57:14;;;;;;;1.93;1.83;;;25.50;75.80;;;;;;5205181;28;20436;-46
2022/08/05 08:59:45;;;;;;;5.10;2.57;;;25.40;76.80;;;;;;5218581;28;20480;-46
2022/08/05 09:02:19;;;;;;;6.30;1.80;;;25.30;76.90;;;;;;5152572;28;20318;-46
2022/08/05 09:04:49;;;;;;;2.77;1.83;;;25.10;78.50;;;;;;5213956;28;20817;-46
2022/08/05 09:07:20;;;;;;;1.97;1.73;;;25.00;79.80;;;;;;5155807;28;20444;-47
2022/08/05 09:09:51;;;;;;;1.77;1.67;;;24.90;82.40;;;;;;5152539;28;20232;-46
2022/08/05 09:12:22;;;;;;;2.10;1.90;;;24.90;85.20;;;;;;5153383;28;20190;-45
2022/08/05 09:14:52;;;;;;;3.90;2.23;;;24.80;89.20;;;;;;5147174;28;20181;-46
2022/08/05 09:17:23;;;;;;;2.30;2.10;;;24.70;91.30;;;;;;5149104;28;20193;-46
2022/08/05 09:19:53;;;;;;;2.80;2.17;;;24.80;93.60;;;;;;5147984;28;20217;-45
2022/08/05 09:22:25;;;;;;;2.03;1.93;;;24.80;93.90;;;;;;5153613;28;20174;-45
2022/08/05 09:24:59;;;;;;;2.33;2.13;;;24.90;93.80;;;;;;5214645;28;20268;-47
2022/08/05 09:27:35;;;;;;;4.00;1.80;;;25.00;93.80;;;;;;5214256;28;20431;-46
2022/08/05 09:30:06;;;;;;;2.70;2.20;;;25.10;94.20;;;;;;5214317;28;21021;-46
2022/08/05 09:32:38;;;;;;;2.53;2.30;;;25.30;93.50;;;;;;5224817;28;20787;-48
2022/08/05 09:35:16;;;;;;;4.80;3.10;;;25.20;92.90;;;;;;5224555;28;20463;-45
2022/08/05 09:37:51;;;;;;;3.50;2.67;;;25.60;92.50;;;;;;5149744;28;20493;-46
2022/08/05 09:40:48;;;;;;;2.40;2.20;;;26.10;90.60;;;;;;5148482;28;20425;-47
2022/08/05 09:43:28;;;;;;;2.30;2.20;;;26.40;86.00;;;;;;5213757;28;20524;-48
2022/08/05 09:45:59;;;;;;;3.17;1.63;;;26.70;82.80;;;;;;5162248;28;20433;-47
2022/08/05 09:48:34;;;;;;;2.90;2.10;;;26.70;79.90;;;;;;5152364;28;20928;-46
2022/08/05 09:51:10;;;;;;;2.00;1.90;;;26.90;80.10;;;;;;5218149;28;20319;-50
2022/08/05 09:53:50;;;;;;;6.23;1.63;;;27.10;78.10;;;;;;5158541;28;20779;-45
2022/08/05 09:56:32;;;;;;;1.50;1.40;;;27.10;75.30;;;;;;5166945;28;20448;-47
2022/08/05 09:59:06;;;;;;;1.60;1.60;;;26.70;75.00;;;;;;5241906;28;20511;-46
2022/08/05 10:01:41;;;;;;;2.23;2.07;;;26.40;76.20;;;;;;5226958;28;20455;-45
2022/08/05 10:04:13;;;;;;;1.67;1.63;;;26.10;77.30;;;;;;5152463;28;20506;-46
2022/08/05 10:06:56;;;;;;;2.00;1.90;;;25.80;78.80;;;;;;5175730;28;20539;-46
2022/08/05 10:09:27;;;;;;;1.67;1.57;;;25.20;82.70;;;;;;5225620;28;20509;-47
2022/08/05 10:12:09;;;;;;;2.33;2.20;;;24.50;93.60;;;;;;5149604;28;20788;-46
2022/08/05 10:14:40;;;;;;;2.93;2.17;;;24.10;99.60;;;;;;5092583;28;20190;-46
2022/08/05 10:17:15;;;;;;;2.10;1.90;;;24.10;99.90;;;;;;5096575;28;20450;-48
2022/08/05 10:19:45;;;;;;;2.80;2.23;;;24.10;99.90;;;;;;5094404;28;20749;-45
2022/08/05 10:22:16;;;;;;;2.13;2.00;;;24.20;99.90;;;;;;5096523;28;20439;-46
2022/08/05 10:24:47;;;;;;;1.70;1.70;;;24.30;99.90;;;;;;5100768;29;20179;-46
2022/08/05 10:27:18;;;;;;;3.43;3.13;;;24.40;98.90;;;;;;5097970;28;20524;-46
2022/08/05 10:29:48;;;;;;;6.03;2.43;;;24.60;99.90;;;;;;5111703;28;20682;-46
2022/08/05 10:32:19;;;;;;;2.17;2.07;;;24.80;99.90;;;;;;5114671;28;20187;-46
2022/08/05 10:34:50;;;;;;;1.57;1.57;;;24.70;99.50;;;;;;5118176;28;20608;-46
2022/08/05 10:37:21;;;;;;;3.00;2.10;;;24.80;99.90;;;;;;5125393;28;20255;-45
2022/08/05 10:39:53;;;;;;;2.87;2.60;;;24.90;99.90;;;;;;5113710;28;20667;-46
2022/08/05 10:42:26;;;;;;;3.97;3.67;;;24.50;99.90;;;;;;5114535;28;20448;-48
2022/08/05 10:44:57;;;;;;;6.77;3.23;;;24.50;99.90;;;;;;5118464;28;20442;-45
2022/08/05 10:47:33;;;;;;;16.30;8.87;;;24.50;99.90;;;;;;5119919;28;20438;-47
2022/08/05 10:50:05;;;;;;;3.90;3.60;;;24.40;99.90;;;;;;5108511;29;20203;-49
2022/08/05 10:52:46;;;;;;;8.40;6.53;;;24.30;99.90;;;;;;5116813;28;20435;-47
2022/08/05 10:55:17;;;;;;;4.23;3.90;;;24.00;99.90;;;;;;5114882;28;20525;-47
2022/08/05 10:58:04;;;;;;;3.67;3.30;;;23.80;99.90;;;;;;5113187;28;20441;-46
2022/08/05 11:00:36;;;;;;;3.17;2.87;;;23.80;99.90;;;;;;5114195;28;20511;-48
2022/08/05 11:03:08;;;;;;;2.27;2.20;;;24.00;99.90;;;;;;5113542;28;20435;-47
2022/08/05 11:05:39;;;;;;;5.90;2.83;;;24.40;99.90;;;;;;5120272;28;20450;-47
2022/08/05 11:08:10;;;;;;;2.77;2.67;;;24.90;99.90;;;;;;5102036;28;21011;-45
2022/08/05 11:10:42;;;;;;;16.53;2.13;;;25.30;99.90;;;;;;5110860;28;20430;-47
2022/08/05 11:13:39;;;;;;;4.50;2.10;;;25.30;99.90;;;;;;5111137;28;20553;-46
2022/08/05 11:16:22;;;;;;;1.87;1.77;;;25.30;99.80;;;;;;5116200;28;20473;-46
2022/08/05 11:19:25;;;;;;;6.23;2.30;;;25.40;98.20;;;;;;5120470;28;20473;-46
2022/08/05 11:22:34;;;;;;;3.60;2.87;;;25.70;98.60;;;;;;5120154;28;20446;-46
2022/08/05 11:25:37;;;;;;;9.23;5.20;;;26.30;94.90;;;;;;5113276;28;20472;-45
2022/08/05 11:28:11;;;;;;;5.33;2.10;;;26.70;92.30;;;;;;5114615;28;20466;-45
2022/08/05 11:30:56;;;;;;;2.07;2.07;;;27.20;88.20;;;;;;5118481;28;20442;-47
2022/08/05 11:33:29;;;;;;;3.13;2.50;;;27.10;83.00;;;;;;5116973;28;20487;-50
2022/08/05 11:36:02;;;;;;;8.53;2.50;;;26.80;85.00;;;;;;5119261;28;20497;-45
2022/08/05 11:38:42;;;;;;;1.90;1.87;;;26.80;84.80;;;;;;5117148;28;20474;-45
2022/08/05 11:41:26;;;;;;;8.13;2.90;;;26.80;85.10;;;;;;5116261;28;20442;-49
2022/08/05 11:44:01;;;;;;;2.33;2.23;;;26.70;85.50;;;;;;5112710;28;20463;-45
2022/08/05 11:46:35;;;;;;;2.93;2.40;;;26.90;85.50;;;;;;5113338;28;20442;-46
2022/08/05 11:49:10;;;;;;;2.73;2.40;;;27.10;85.50;;;;;;5109346;28;20454;-47
2022/08/05 11:51:43;;;;;;;2.20;2.20;;;27.10;83.80;;;;;;5114604;28;20488;-46
2022/08/05 11:54:28;;;;;;;4.80;4.30;;;27.10;83.80;;;;;;5125110;28;20458;-49
2022/08/05 11:57:00;;;;;;;21.27;11.90;;;27.30;84.00;;;;;;5117763;29;20443;-45
2022/08/05 11:59:32;;;;;;;7.90;5.90;;;27.30;83.10;;;;;;5141594;28;20477;-46
2022/08/05 12:02:07;;;;;;;2.17;2.07;;;27.20;83.60;;;;;;5117310;28;20441;-51
2022/08/05 12:04:39;;;;;;;2.80;2.20;;;27.50;82.60;;;;;;5121511;28;20438;-48
2022/08/05 12:07:13;;;;;;;5.77;3.00;;;27.60;82.50;;;;;;5112773;28;20434;-46
2022/08/05 12:09:52;;;;;;;12.73;8.00;;;27.70;81.40;;;;;;5116664;28;20473;-45
2022/08/05 12:12:26;;;;;;;9.10;7.30;;;27.60;78.50;;;;;;5111127;28;20442;-47
2022/08/05 12:14:57;;;;;;;3.90;3.60;;;27.70;76.30;;;;;;5105448;28;20541;-47
2022/08/05 12:17:34;;;;;;;2.53;2.43;;;27.60;75.90;;;;;;5112141;28;20513;-46
2022/08/05 12:20:06;;;;;;;2.53;2.43;;;27.70;75.40;;;;;;5109263;28;20213;-47
2022/08/05 12:22:39;;;;;;;3.40;1.80;;;28.00;75.30;;;;;;5109599;28;21081;-47
2022/08/05 12:25:10;;;;;;;2.70;2.20;;;28.10;72.70;;;;;;5109534;28;20442;-48
2022/08/05 12:27:46;;;;;;;7.63;5.50;;;28.30;72.20;;;;;;5111762;28;20472;-46
2022/08/05 12:30:16;;;;;;;2.30;2.20;;;28.20;71.00;;;;;;5113773;28;20191;-47
2022/08/05 12:32:54;;;;;;;2.10;2.00;;;27.90;71.40;;;;;;5107006;28;20447;-49
2022/08/05 12:35:24;;;;;;;2.33;2.17;;;28.00;72.70;;;;;;5110262;28;20182;-46
2022/08/05 12:37:58;;;;;;;3.00;2.80;;;28.10;71.80;;;;;;5114184;28;20802;-47
2022/08/05 12:40:29;;;;;;;2.47;2.30;;;28.10;71.50;;;;;;5114094;28;20183;-46
2022/08/05 12:42:59;;;;;;;2.67;2.50;;;28.20;71.20;;;;;;5112110;28;20496;-48
2022/08/05 12:45:30;;;;;;;3.47;3.00;;;28.30;69.90;;;;;;5113320;29;20201;-47
2022/08/05 12:48:14;;;;;;;2.80;2.70;;;28.40;69.50;;;;;;5112185;28;20531;-47
2022/08/05 12:51:11;;;;;;;2.70;2.37;;;28.50;69.70;;;;;;5111811;28;20863;-47
2022/08/05 12:53:45;;;;;;;10.10;2.70;;;28.60;68.80;;;;;;5113625;28;20439;-46
2022/08/05 12:56:25;;;;;;;2.40;2.17;;;28.80;68.10;;;;;;5115894;28;20468;-45
2022/08/05 12:59:16;;;;;;;5.53;4.40;;;29.00;67.70;;;;;;5114223;28;20470;-48
2022/08/05 13:02:07;;;;;;;2.30;2.20;;;29.00;68.20;;;;;;5107974;28;21012;-49
2022/08/05 13:04:42;;;;;;;1.97;1.83;;;29.00;65.80;;;;;;5108601;28;20439;-50
2022/08/05 13:07:24;;;;;;;1.73;1.60;;;29.00;66.70;;;;;;5112712;28;20959;-48
2022/08/05 13:09:59;;;;;;;17.57;2.07;;;29.10;66.10;;;;;;5117861;28;20526;-48
2022/08/05 13:12:30;;;;;;;2.83;2.70;;;29.30;64.40;;;;;;5109679;28;20498;-47
2022/08/05 13:15:02;;;;;;;2.10;1.97;;;29.40;63.40;;;;;;5128352;28;20433;-48
2022/08/05 13:17:33;;;;;;;1.83;1.73;;;29.30;63.30;;;;;;5110725;28;20197;-48
2022/08/05 13:20:07;;;;;;;1.63;1.53;;;29.30;62.80;;;;;;5110223;28;20477;-48
2022/08/05 13:22:40;;;;;;;2.70;1.83;;;29.40;63.10;;;;;;5113920;28;20276;-46
2022/08/05 13:25:15;;;;;;;2.53;1.90;;;29.40;62.20;;;;;;5117482;28;20520;-48